createdAt,value
2023-01-13T00:03:31.837Z,70.99
2023-01-13T00:09:23.967Z,71.26
2023-01-13T00:15:16.999Z,71.05
2023-01-13T00:21:17.128Z,71.04
2023-01-13T00:27:09.943Z,71.54
2023-01-13T00:33:02.756Z,71.27
2023-01-13T00:38:55.147Z,71.49
2023-01-13T00:44:48.085Z,71.00
2023-01-13T00:50:41.312Z,70.57
2023-01-13T00:56:40.202Z,71.76
2023-01-13T01:02:32.928Z,71.38
2023-01-13T01:08:24.896Z,71.33
2023-01-13T01:14:17.007Z,71.39
2023-01-13T01:20:09.698Z,71.36
2023-01-13T01:26:12.036Z,70.64
2023-01-13T01:32:05.139Z,70.43
2023-01-13T01:37:58.226Z,70.30
2023-01-13T01:44:00.021Z,70.55
2023-01-13T01:49:53.572Z,70.20
2023-01-13T01:55:46.292Z,70.29
2023-01-13T02:01:41.959Z,71.00
2023-01-13T02:07:37.175Z,70.79
2023-01-13T02:13:31.285Z,70.56
2023-01-13T02:20:02.548Z,70.52
2023-01-13T02:25:57.795Z,70.05
2023-01-13T02:31:52.433Z,68.86
2023-01-13T02:37:45.480Z,68.22
2023-01-13T02:43:58.877Z,66.95
2023-01-13T02:49:57.829Z,67.02
2023-01-13T02:55:54.105Z,66.18
2023-01-13T03:01:48.073Z,66.44
2023-01-13T03:08:15.912Z,67.02
2023-01-13T03:14:27.403Z,66.41
2023-01-13T03:20:27.850Z,67.59
2023-01-13T03:26:35.081Z,68.30
2023-01-13T03:32:42.929Z,68.09
2023-01-13T03:38:58.813Z,68.71
2023-01-13T03:45:18.100Z,68.28
2023-01-13T03:51:16.523Z,69.18
2023-01-13T03:57:14.180Z,68.60
2023-01-13T04:03:23.579Z,68.54
2023-01-13T04:09:39.518Z,68.76
2023-01-13T04:15:39.517Z,69.01
2023-01-13T04:21:34.543Z,68.33
2023-01-13T04:27:28.147Z,68.36
2023-01-13T04:33:21.305Z,68.43
2023-01-13T04:39:13.613Z,68.44
2023-01-13T04:45:07.428Z,67.62
2023-01-13T04:50:59.193Z,67.34
2023-01-13T04:56:51.488Z,67.33
2023-01-13T05:02:43.808Z,67.39
2023-01-13T05:08:36.636Z,68.17
2023-01-13T05:14:48.367Z,67.92
2023-01-13T05:20:40.746Z,67.87
2023-01-13T05:26:34.632Z,68.21
2023-01-13T05:32:28.311Z,67.51
2023-01-13T05:38:21.040Z,68.26
2023-01-13T05:44:14.767Z,68.10
2023-01-13T05:50:08.481Z,67.95
2023-01-13T05:56:05.329Z,67.84
2023-01-13T06:01:57.204Z,67.98
2023-01-13T06:07:49.903Z,68.65
2023-01-13T06:13:43.285Z,69.15
2023-01-13T06:19:36.289Z,68.25
2023-01-13T06:25:28.963Z,68.39
2023-01-13T06:31:22.330Z,68.46
2023-01-13T06:37:20.152Z,68.18
2023-01-13T06:43:16.684Z,67.88
2023-01-13T06:49:10.996Z,68.05
2023-01-13T06:55:04.402Z,67.33
2023-01-13T07:01:00.130Z,67.57
2023-01-13T07:06:53.119Z,67.30
2023-01-13T07:13:05.697Z,67.01
2023-01-13T07:19:00.120Z,67.73
2023-01-13T07:24:53.132Z,67.48
2023-01-13T07:30:45.957Z,67.94
2023-01-13T07:36:39.435Z,67.17
2023-01-13T07:42:50.865Z,66.72
2023-01-13T07:48:43.131Z,66.43
2023-01-13T07:54:40.914Z,66.47
2023-01-13T08:00:34.225Z,65.38
2023-01-13T08:06:27.501Z,65.03
2023-01-13T08:12:38.298Z,64.38
2023-01-13T08:18:33.332Z,64.19
2023-01-13T08:24:26.328Z,62.46
2023-01-13T08:30:26.221Z,62.43
2023-01-13T08:36:19.219Z,61.77
2023-01-13T08:42:12.334Z,61.79
2023-01-13T08:48:05.760Z,61.80
2023-01-13T08:54:00.205Z,61.44
2023-01-13T08:59:53.309Z,61.26
2023-01-13T09:05:47.262Z,60.50
2023-01-13T09:12:02.108Z,60.93
2023-01-13T09:17:55.582Z,61.77
2023-01-13T09:23:48.589Z,62.51
2023-01-13T09:29:42.029Z,63.50
2023-01-13T09:35:36.733Z,64.91
2023-01-13T09:41:49.968Z,64.94
2023-01-13T09:47:56.153Z,64.68
2023-01-13T09:54:00.869Z,66.11
2023-01-13T09:59:53.206Z,69.72
2023-01-13T10:05:56.666Z,68.30
2023-01-13T10:12:09.536Z,67.13
2023-01-13T10:18:12.449Z,64.66
2023-01-13T10:24:27.530Z,63.99
2023-01-13T10:30:24.338Z,61.90
2023-01-13T10:36:21.718Z,61.29
2023-01-13T10:42:22.340Z,59.16
2023-01-13T10:48:15.282Z,57.18
2023-01-13T10:54:13.268Z,57.78
2023-01-13T11:00:06.336Z,57.66
2023-01-13T11:06:00.556Z,57.59
2023-01-13T11:11:57.061Z,57.37
2023-01-13T11:18:01.649Z,57.66
2023-01-13T11:24:11.631Z,56.79
2023-01-13T11:30:21.008Z,56.41
2023-01-13T11:36:23.749Z,55.55
2023-01-13T11:42:25.611Z,55.70
2023-01-13T11:48:23.050Z,55.60
2023-01-13T11:54:47.424Z,55.91
2023-01-13T12:01:00.903Z,56.57
2023-01-13T12:07:22.987Z,57.73
2023-01-13T12:13:30.889Z,58.35
2023-01-13T12:19:30.250Z,58.30
2023-01-13T12:25:37.690Z,58.35
2023-01-13T12:31:32.254Z,58.11
2023-01-13T12:37:50.349Z,57.67
2023-01-13T12:44:07.298Z,56.89
2023-01-13T12:50:25.017Z,56.97
2023-01-13T12:56:40.299Z,58.11
2023-01-13T13:02:39.488Z,58.49
2023-01-13T13:08:56.514Z,57.42
2023-01-13T13:14:49.035Z,57.28
2023-01-13T13:21:09.025Z,56.89
2023-01-13T13:28:06.112Z,57.59
2023-01-13T13:34:17.649Z,59.08
2023-01-13T13:40:30.414Z,59.86
2023-01-13T13:46:47.569Z,60.09
2023-01-13T13:53:03.017Z,60.53
2023-01-13T13:58:56.648Z,60.45
2023-01-13T14:04:51.261Z,60.69
2023-01-13T14:10:46.545Z,60.89
2023-01-13T14:16:40.767Z,61.54
2023-01-13T14:22:33.331Z,61.99
2023-01-13T14:28:32.642Z,61.97
2023-01-13T14:34:31.720Z,62.73
2023-01-13T14:40:37.281Z,63.91
2023-01-13T14:46:43.347Z,65.61
2023-01-13T14:52:58.367Z,67.71
2023-01-13T14:58:51.864Z,72.31
2023-01-13T15:04:44.184Z,73.40
2023-01-13T15:10:55.675Z,74.39
2023-01-13T15:16:48.644Z,75.31
2023-01-13T15:22:42.547Z,76.02
2023-01-13T15:28:34.985Z,76.12
2023-01-13T15:34:27.584Z,77.02
2023-01-13T15:40:31.131Z,77.39
2023-01-13T15:46:43.584Z,77.30
2023-01-13T15:52:36.027Z,78.28
2023-01-13T15:58:30.855Z,78.60
2023-01-13T16:04:23.361Z,79.95
2023-01-13T16:10:26.203Z,79.94
2023-01-13T16:16:24.842Z,79.89
2023-01-13T16:22:18.289Z,80.15
2023-01-13T16:28:23.033Z,80.03
2023-01-13T16:34:15.426Z,79.86
2023-01-13T16:40:21.733Z,79.71
2023-01-13T16:46:21.645Z,81.71
2023-01-13T16:52:14.672Z,81.86
2023-01-13T16:58:20.974Z,82.15
2023-01-13T17:04:20.298Z,82.54
2023-01-13T17:10:23.030Z,82.37
2023-01-13T17:16:26.454Z,82.37
2023-01-13T17:22:23.295Z,82.17
2023-01-13T17:28:15.757Z,82.49
2023-01-13T17:34:11.020Z,82.59
2023-01-13T17:40:05.804Z,82.31
2023-01-13T17:46:00.489Z,82.21
2023-01-13T17:51:55.443Z,81.64
2023-01-13T17:57:47.962Z,80.93
2023-01-13T18:03:41.779Z,81.10
2023-01-13T18:09:34.755Z,82.67
2023-01-13T18:15:27.914Z,82.41
2023-01-13T18:21:42.415Z,83.63
2023-01-13T18:27:38.655Z,83.75
2023-01-13T18:33:30.762Z,82.72
2023-01-13T18:39:23.838Z,83.96
2023-01-13T18:45:29.410Z,83.63
2023-01-13T18:51:21.910Z,83.33
2023-01-13T18:57:16.453Z,83.20
2023-01-13T19:09:11.190Z,83.79
2023-01-13T19:15:04.785Z,83.52
2023-01-13T19:21:01.752Z,84.53
2023-01-13T19:26:55.046Z,84.78
2023-01-13T19:32:47.859Z,83.62
2023-01-13T19:38:40.878Z,82.97
2023-01-13T19:44:52.714Z,82.93
2023-01-13T19:50:45.511Z,82.41
2023-01-13T19:56:39.124Z,83.17
2023-01-13T20:02:32.748Z,82.46
2023-01-13T20:08:27.223Z,83.02
2023-01-13T20:14:21.566Z,82.79
2023-01-13T20:20:16.064Z,83.38
2023-01-13T20:26:09.165Z,83.72
2023-01-13T20:32:02.271Z,82.16
2023-01-13T20:37:55.084Z,81.70
2023-01-13T20:43:50.197Z,81.10
2023-01-13T20:49:44.295Z,80.98
2023-01-13T20:55:40.043Z,81.57
2023-01-13T21:01:32.544Z,81.50
2023-01-13T21:07:25.653Z,81.70
2023-01-13T21:13:37.078Z,82.09
2023-01-13T21:19:30.347Z,81.40
2023-01-13T21:25:23.306Z,81.59
2023-01-13T21:31:17.616Z,81.04
2023-01-13T21:37:13.567Z,81.33
2023-01-13T21:43:31.815Z,81.00
2023-01-13T21:49:24.897Z,80.89
2023-01-13T21:55:20.589Z,80.96
2023-01-13T22:01:13.397Z,80.42
2023-01-13T22:07:06.864Z,80.70
2023-01-13T22:13:21.436Z,80.74
2023-01-13T22:19:14.295Z,80.28
2023-01-13T22:25:09.212Z,80.14
2023-01-13T22:31:02.360Z,80.58
2023-01-13T22:36:55.438Z,79.69
2023-01-13T22:42:48.396Z,77.90
2023-01-13T22:48:41.751Z,77.50
2023-01-13T22:54:34.400Z,75.81
2023-01-13T23:00:27.638Z,75.24
2023-01-13T23:06:22.114Z,74.21
2023-01-13T23:12:14.097Z,74.29
2023-01-13T23:18:06.597Z,73.16
2023-01-13T23:23:59.587Z,74.37
2023-01-13T23:29:54.735Z,74.64
2023-01-13T23:35:59.579Z,76.00
2023-01-13T23:41:52.522Z,76.25
2023-01-13T23:47:46.521Z,77.38
2023-01-13T23:53:41.063Z,77.32
2023-01-13T23:59:33.567Z,77.98
